Time;durP1;ratioP1;P1;durP2;ratioP2;P2;SDS_P1;SDS_P2;PMS_P1;PMS_P2;Temp;Humidity;BMP_temperature;BMP_pressure;BME280_temperature;BME280_humidity;BME280_pressure;Samples;Min_cycle;Max_cycle;Signal;HPM_P1;HPM_P2
2023/05/09 00:02:17;;;;;;;13.07;9.63;;;;;;;;;;6270539;22;20043;-81
2023/05/09 00:25:35;;;;;;;10.98;8.55;;;;;;;;;;6332045;22;20004;-83
2023/05/09 00:30:45;;;;;;;13.45;8.93;;;;;;;;;;6305544;22;20122;-83
2023/05/09 00:33:14;;;;;;;10.90;8.43;;;;;;;;;;6275924;22;19988;-84
2023/05/09 00:38:22;;;;;;;9.95;8.02;;;;;;;;;;6279984;22;20027;-82
2023/05/09 00:40:49;;;;;;;10.95;8.55;;;;;;;;;;6308894;22;20069;-83
2023/05/09 00:45:52;;;;;;;12.73;9.13;;;;;;;;;;6336005;22;20037;-83
2023/05/09 00:48:30;;;;;;;12.35;9.00;;;;;;;;;;6278453;22;20039;-85
2023/05/09 00:51:00;;;;;;;12.35;9.25;;;;;;;;;;6278399;22;20012;-84
2023/05/09 00:53:51;;;;;;;;;;;;;;;;;;;;;
2023/05/09 00:56:20;;;;;;;11.60;9.20;;;;;;;;;;6304459;22;20008;-86
2023/05/09 00:58:52;;;;;;;14.70;10.20;;;;;;;;;;6303259;22;20067;-85
2023/05/09 01:01:25;;;;;;;14.00;10.18;;;;;;;;;;6295352;22;20027;-84
2023/05/09 01:07:06;;;;;;;20.15;12.80;;;;;;;;;;6286442;22;20023;-82
2023/05/09 01:09:43;;;;;;;16.13;12.20;;;;;;;;;;6303360;22;19995;-82
2023/05/09 01:14:50;;;;;;;18.25;12.50;;;;;;;;;;6330627;22;20373;-88
2023/05/09 01:17:26;;;;;;;19.30;14.52;;;;;;;;;;6304399;22;19994;-88
2023/05/09 01:19:58;;;;;;;19.45;14.40;;;;;;;;;;6332979;22;20008;-88
2023/05/09 01:22:29;;;;;;;20.42;14.00;;;;;;;;;;6302571;22;20125;-88
2023/05/09 01:25:01;;;;;;;21.88;15.35;;;;;;;;;;6275360;22;19996;-88
2023/05/09 01:27:43;;;;;;;20.33;15.63;;;;;;;;;;6301342;22;20004;-89
2023/05/09 01:30:10;;;;;;;18.98;14.77;;;;;;;;;;6275120;22;19995;-87
2023/05/09 01:32:39;;;;;;;20.70;14.50;;;;;;;;;;6245658;22;20258;-89
2023/05/09 01:35:06;;;;;;;20.73;15.80;;;;;;;;;;6245898;22;20044;-87
2023/05/09 01:37:33;;;;;;;20.85;14.55;;;;;;;;;;6244724;22;19996;-88
2023/05/09 01:40:05;;;;;;;19.05;13.98;;;;;;;;;;6246756;22;20099;-89
2023/05/09 01:42:40;;;;;;;18.85;13.93;;;;;;;;;;6246131;22;20065;-89
2023/05/09 01:45:07;;;;;;;21.30;13.63;;;;;;;;;;6243740;23;20056;-89
2023/05/09 01:47:34;;;;;;;20.67;13.18;;;;;;;;;;6244799;23;20008;-87
2023/05/09 01:50:01;;;;;;;15.00;11.85;;;;;;;;;;6269923;22;20417;-87
2023/05/09 01:52:28;;;;;;;15.38;12.65;;;;;;;;;;6268588;22;20004;-89
2023/05/09 01:54:54;;;;;;;17.13;13.05;;;;;;;;;;6244706;23;20000;-89
2023/05/09 01:57:21;;;;;;;15.68;11.55;;;;;;;;;;6268600;23;20023;-89
2023/05/09 01:59:48;;;;;;;14.40;11.70;;;;;;;;;;6269101;23;20020;-88
2023/05/09 02:02:14;;;;;;;13.93;11.25;;;;;;;;;;6268639;22;20008;-89
2023/05/09 02:04:41;;;;;;;17.38;11.60;;;;;;;;;;6269336;22;20012;-88
2023/05/09 02:07:07;;;;;;;14.05;11.02;;;;;;;;;;6244913;23;20064;-90
2023/05/09 02:09:34;;;;;;;15.13;11.13;;;;;;;;;;6246728;23;19996;-87
2023/05/09 02:12:00;;;;;;;15.27;10.73;;;;;;;;;;6244125;22;20052;-89
2023/05/09 02:14:27;;;;;;;14.38;11.45;;;;;;;;;;6265029;22;20017;-87
2023/05/09 02:16:53;;;;;;;14.10;11.05;;;;;;;;;;6245391;22;19999;-86
2023/05/09 02:19:19;;;;;;;16.15;11.85;;;;;;;;;;6245909;22;20024;-87
2023/05/09 02:21:45;;;;;;;16.85;12.73;;;;;;;;;;6244726;22;20000;-88
2023/05/09 02:24:11;;;;;;;15.98;11.88;;;;;;;;;;6245418;22;19992;-88
2023/05/09 02:26:38;;;;;;;16.38;12.00;;;;;;;;;;6272166;22;19988;-87
2023/05/09 02:29:05;;;;;;;16.52;12.65;;;;;;;;;;6270444;22;19995;-87
2023/05/09 02:31:32;;;;;;;15.80;12.13;;;;;;;;;;6244738;22;20007;-87
2023/05/09 02:33:59;;;;;;;17.63;11.50;;;;;;;;;;6243773;23;20009;-90
2023/05/09 02:36:25;;;;;;;15.88;11.63;;;;;;;;;;6243819;22;20024;-88
2023/05/09 02:38:51;;;;;;;14.43;11.13;;;;;;;;;;6270370;23;20051;-89
2023/05/09 02:41:17;;;;;;;16.13;11.73;;;;;;;;;;6268628;22;20008;-87
2023/05/09 02:43:43;;;;;;;16.67;11.45;;;;;;;;;;6240678;23;19984;-88
2023/05/09 02:46:10;;;;;;;18.83;10.85;;;;;;;;;;6243997;22;20007;-89
2023/05/09 02:48:36;;;;;;;14.82;11.38;;;;;;;;;;6244347;23;20012;-88
2023/05/09 02:51:03;;;;;;;16.60;11.52;;;;;;;;;;6268993;22;20000;-88
2023/05/09 02:53:29;;;;;;;17.20;11.43;;;;;;;;;;6244287;22;20018;-88
2023/05/09 02:55:56;;;;;;;16.73;10.77;;;;;;;;;;6243202;23;20030;-88
2023/05/09 02:58:22;;;;;;;13.50;10.30;;;;;;;;;;6269043;22;20034;-89
2023/05/09 03:00:48;;;;;;;15.05;10.57;;;;;;;;;;6242677;23;20012;-88
2023/05/09 03:03:16;;;;;;;15.75;10.82;;;;;;;;;;6243629;22;20023;-87
2023/05/09 03:05:42;;;;;;;14.73;11.23;;;;;;;;;;6243986;23;19992;-89
2023/05/09 03:08:08;;;;;;;13.48;10.70;;;;;;;;;;6244460;22;19996;-90
2023/05/09 03:10:34;;;;;;;16.30;10.82;;;;;;;;;;6243785;22;20022;-88
2023/05/09 03:13:00;;;;;;;17.88;10.93;;;;;;;;;;6243445;22;20058;-89
2023/05/09 03:15:26;;;;;;;14.98;10.52;;;;;;;;;;6244613;22;20011;-86
2023/05/09 03:17:52;;;;;;;17.08;10.32;;;;;;;;;;6244198;22;20019;-89
2023/05/09 03:20:19;;;;;;;12.60;10.20;;;;;;;;;;6243726;22;19998;-88
2023/05/09 03:22:47;;;;;;;13.90;10.45;;;;;;;;;;6270146;22;20023;-88
2023/05/09 03:25:13;;;;;;;12.57;10.07;;;;;;;;;;6269003;22;20014;-88
2023/05/09 03:27:39;;;;;;;14.80;10.30;;;;;;;;;;6269623;22;20093;-89
2023/05/09 03:30:05;;;;;;;15.18;10.13;;;;;;;;;;6244959;22;20000;-88
2023/05/09 03:32:31;;;;;;;15.18;9.95;;;;;;;;;;6270720;22;20012;-88
2023/05/09 03:34:57;;;;;;;12.68;10.35;;;;;;;;;;6243402;22;20086;-89
2023/05/09 03:37:23;;;;;;;14.75;10.20;;;;;;;;;;6244501;22;20012;-89
2023/05/09 03:39:50;;;;;;;14.38;10.35;;;;;;;;;;6271326;22;19988;-87
2023/05/09 03:42:16;;;;;;;14.90;9.75;;;;;;;;;;6243860;22;20023;-88
2023/05/09 03:44:42;;;;;;;13.73;10.80;;;;;;;;;;6243335;23;20000;-87
2023/05/09 03:47:11;;;;;;;16.55;9.90;;;;;;;;;;6221087;22;19996;-88
2023/05/09 03:49:37;;;;;;;13.10;9.90;;;;;;;;;;6245637;22;20023;-88
2023/05/09 03:52:04;;;;;;;13.23;10.35;;;;;;;;;;6244853;22;20011;-89
2023/05/09 03:54:30;;;;;;;16.55;10.55;;;;;;;;;;6244542;22;19996;-88
2023/05/09 03:56:56;;;;;;;13.90;10.80;;;;;;;;;;6246505;23;20012;-88
2023/05/09 03:59:22;;;;;;;12.77;10.48;;;;;;;;;;6246258;22;19996;-86
2023/05/09 04:01:48;;;;;;;13.02;10.23;;;;;;;;;;6270389;22;20004;-89
2023/05/09 04:04:14;;;;;;;13.23;9.98;;;;;;;;;;6272068;22;20030;-87
2023/05/09 04:06:40;;;;;;;17.05;10.43;;;;;;;;;;6244670;22;20007;-87
2023/05/09 04:09:08;;;;;;;15.68;11.13;;;;;;;;;;6246517;22;20016;-89
2023/05/09 04:11:34;;;;;;;12.73;10.07;;;;;;;;;;6273144;22;20008;-89
2023/05/09 04:14:00;;;;;;;14.57;11.40;;;;;;;;;;6271144;22;20004;-88
2023/05/09 04:16:35;;;;;;;14.80;11.75;;;;;;;;;;6272557;22;19996;-88
2023/05/09 04:19:01;;;;;;;12.70;10.38;;;;;;;;;;6246843;22;20016;-88
2023/05/09 04:21:27;;;;;;;13.30;10.30;;;;;;;;;;6246890;22;20008;-87
2023/05/09 04:23:53;;;;;;;14.55;10.68;;;;;;;;;;6247622;22;20010;-87
2023/05/09 04:26:21;;;;;;;13.30;10.68;;;;;;;;;;6246940;23;20008;-90
2023/05/09 04:28:47;;;;;;;13.40;10.73;;;;;;;;;;6245897;22;20018;-88
2023/05/09 04:31:13;;;;;;;15.05;10.20;;;;;;;;;;6271919;22;20027;-87
2023/05/09 04:33:39;;;;;;;15.75;10.63;;;;;;;;;;6272653;22;20031;-88
2023/05/09 04:36:06;;;;;;;15.43;10.43;;;;;;;;;;6245408;23;20025;-88
2023/05/09 04:38:32;;;;;;;14.27;10.65;;;;;;;;;;6246342;23;20015;-88
2023/05/09 04:40:58;;;;;;;12.45;9.95;;;;;;;;;;6244605;22;20016;-87
2023/05/09 04:43:26;;;;;;;12.80;10.27;;;;;;;;;;6243964;23;20310;-88
2023/05/09 04:45:52;;;;;;;17.15;12.02;;;;;;;;;;6271156;22;20012;-87
2023/05/09 04:48:18;;;;;;;13.20;10.52;;;;;;;;;;6244075;23;20071;-86
2023/05/09 04:50:47;;;;;;;16.13;11.23;;;;;;;;;;6269353;22;20020;-88
2023/05/09 04:53:13;;;;;;;17.67;10.93;;;;;;;;;;6245327;22;20023;-87
2023/05/09 04:55:39;;;;;;;18.80;12.00;;;;;;;;;;6245987;23;20093;-87
2023/05/09 04:58:05;;;;;;;22.17;11.90;;;;;;;;;;6243464;23;20023;-87
2023/05/09 05:00:38;;;;;;;17.85;12.30;;;;;;;;;;6245188;22;19988;-88
2023/05/09 05:03:06;;;;;;;15.90;11.55;;;;;;;;;;6271462;22;20004;-87
2023/05/09 05:05:32;;;;;;;14.27;11.18;;;;;;;;;;6243898;23;20011;-88
2023/05/09 05:07:58;;;;;;;14.70;11.20;;;;;;;;;;6243814;23;20064;-88
2023/05/09 05:10:24;;;;;;;15.73;10.88;;;;;;;;;;6263761;23;20004;-87
2023/05/09 05:12:50;;;;;;;15.93;11.35;;;;;;;;;;6237982;23;20004;-86
2023/05/09 05:15:18;;;;;;;15.45;10.90;;;;;;;;;;6241278;23;20067;-87
2023/05/09 05:17:44;;;;;;;18.02;11.38;;;;;;;;;;6268870;23;19996;-90
2023/05/09 05:20:10;;;;;;;14.68;9.98;;;;;;;;;;6241787;23;20004;-85
2023/05/09 05:22:36;;;;;;;14.77;10.20;;;;;;;;;;6242841;23;20511;-90
2023/05/09 05:25:03;;;;;;;13.05;10.15;;;;;;;;;;6244576;23;20000;-88
2023/05/09 05:27:30;;;;;;;16.63;9.98;;;;;;;;;;6243548;22;20000;-89
2023/05/09 05:29:56;;;;;;;14.35;10.00;;;;;;;;;;6271658;22;19993;-88
2023/05/09 05:32:22;;;;;;;14.10;10.60;;;;;;;;;;6243510;22;19984;-87
2023/05/09 05:34:48;;;;;;;13.10;10.45;;;;;;;;;;6269482;22;20000;-88
2023/05/09 05:37:14;;;;;;;13.70;10.73;;;;;;;;;;6242374;22;20001;-88
2023/05/09 05:39:40;;;;;;;17.10;10.13;;;;;;;;;;6243570;22;20000;-87
2023/05/09 05:42:06;;;;;;;17.90;10.25;;;;;;;;;;6243187;22;20019;-87
2023/05/09 05:44:33;;;;;;;14.30;10.07;;;;;;;;;;6242026;22;19996;-87
2023/05/09 05:46:59;;;;;;;17.48;9.82;;;;;;;;;;6242410;22;19992;-87
2023/05/09 05:49:25;;;;;;;18.85;10.95;;;;;;;;;;6241811;22;20034;-87
2023/05/09 05:51:51;;;;;;;21.02;10.10;;;;;;;;;;6242174;22;19988;-89
2023/05/09 05:54:17;;;;;;;18.00;9.40;;;;;;;;;;6268538;22;19992;-87
2023/05/09 05:56:43;;;;;;;16.83;10.15;;;;;;;;;;6242229;22;19996;-89
2023/05/09 05:59:09;;;;;;;23.73;10.43;;;;;;;;;;6268493;22;19993;-88
2023/05/09 06:01:35;;;;;;;20.98;10.85;;;;;;;;;;6241341;22;20077;-88
2023/05/09 06:04:01;;;;;;;16.77;10.18;;;;;;;;;;6243082;22;19992;-88
2023/05/09 06:06:27;;;;;;;18.17;10.82;;;;;;;;;;6241384;22;20000;-87
2023/05/09 06:08:54;;;;;;;25.63;11.63;;;;;;;;;;6243563;22;20044;-88
2023/05/09 06:11:20;;;;;;;29.02;12.07;;;;;;;;;;6240699;22;20031;-88
2023/05/09 06:13:46;;;;;;;33.67;12.23;;;;;;;;;;6247829;23;20039;-89
2023/05/09 06:16:12;;;;;;;25.08;11.77;;;;;;;;;;6265172;22;20009;-88
2023/05/09 06:18:39;;;;;;;21.05;11.05;;;;;;;;;;6268807;22;19988;-88
2023/05/09 06:21:06;;;;;;;22.98;11.90;;;16.10;99.90;;;;;;6267948;22;20000;-87
2023/05/09 06:23:32;;;;;;;19.65;10.63;;;;;;;;;;6265755;22;20054;-87
2023/05/09 06:25:58;;;;;;;19.02;10.13;;;;;;;;;;6265085;23;20022;-87
2023/05/09 06:28:24;;;;;;;17.23;9.90;;;;;;;;;;6262705;23;20092;-88
2023/05/09 06:30:50;;;;;;;18.38;9.95;;;;;;;;;;6263712;23;20067;-89
2023/05/09 06:33:16;;;;;;;22.23;9.70;;;;;;;;;;6262763;22;20009;-88
2023/05/09 06:35:43;;;;;;;14.73;10.23;;;;;;;;;;6262237;23;20038;-87
2023/05/09 06:38:09;;;;;;;21.77;9.95;;;;;;;;;;6265782;23;20015;-90
2023/05/09 06:40:35;;;;;;;22.95;10.85;;;;;;;;;;6264050;23;20019;-90
2023/05/09 06:43:01;;;;;;;21.23;10.30;;;;;;;;;;6264220;22;20004;-90
2023/05/09 06:45:27;;;;;;;24.05;10.82;;;;;;;;;;6264577;23;19984;-89
2023/05/09 06:47:54;;;;;;;24.95;10.77;;;;;;;;;;6266101;23;20004;-89
2023/05/09 06:50:20;;;;;;;24.85;10.40;;;;;;;;;;6263741;23;20080;-88
2023/05/09 06:52:46;;;;;;;24.55;9.55;;;;;;;;;;6264554;22;19988;-88
2023/05/09 06:55:13;;;;;;;25.60;10.18;;;;;;;;;;6263460;22;20004;-90
2023/05/09 06:57:39;;;;;;;24.45;10.32;;;;;;;;;;6265303;23;19996;-89
2023/05/09 07:00:06;;;;;;;16.17;9.50;;;;;;;;;;6262666;23;20008;-90
2023/05/09 07:02:32;;;;;;;22.65;10.02;;;;;;;;;;6261934;22;20398;-89
2023/05/09 07:04:58;;;;;;;18.33;9.35;;;;;;;;;;6261930;23;20024;-87
2023/05/09 07:07:24;;;;;;;16.48;8.35;;;;;;;;;;6261356;23;20329;-88
2023/05/09 07:09:51;;;;;;;20.63;8.80;;;;;;;;;;6264232;23;19995;-88
2023/05/09 07:12:19;;;;;;;15.90;8.90;;;;;;;;;;6264058;22;20023;-88
2023/05/09 07:14:57;;;;;;;12.98;8.38;;;;;;;;;;6261354;23;20016;-89
2023/05/09 07:17:33;;;;;;;12.23;7.50;;;;;;;;;;6263952;22;20007;-87
2023/05/09 07:20:02;;;;;;;10.00;7.65;;;;;;;;;;6264870;23;19996;-87
2023/05/09 07:22:31;;;;;;;14.30;8.05;;;;;;;;;;6264589;22;20004;-88
2023/05/09 07:24:57;;;;;;;13.55;7.05;;;;;;;;;;6261979;23;20052;-89
2023/05/09 07:27:24;;;;;;;16.38;7.90;;;;;;;;;;6263783;23;19996;-93
2023/05/09 07:29:51;;;;;;;8.63;7.05;;;;;;;;;;6266292;22;20004;-90
2023/05/09 07:32:20;;;;;;;11.77;6.90;;;;;;;;;;6269674;22;20003;-90
2023/05/09 07:34:49;;;;;;;9.70;6.17;;;;;;;;;;6272580;22;19995;-88
2023/05/09 09:57:47;;;;;;;5.70;2.50;;;20.70;99.90;;;;;;6302905;22;20003;-84
2023/05/09 10:07:59;;;;;;;3.05;2.13;;;;;;;;;;6299676;22;20024;-84
2023/05/09 10:10:32;;;;;;;7.03;3.03;;;;;;;;;;6300486;22;20011;-81
2023/05/09 10:13:03;;;;;;;4.95;2.47;;;;;;;;;;6291460;22;19984;-83
2023/05/09 10:15:34;;;;;;;5.38;2.90;;;;;;;;;;6271510;23;20004;-86
2023/05/09 10:18:03;;;;;;;4.13;2.47;;;;;;;;;;6270480;23;20000;-85
2023/05/09 10:20:30;;;;;;;7.95;2.83;;;;;;;;;;6268954;22;20313;-85
2023/05/09 11:12:11;;;;;;;3.35;2.05;;;;;;;;;;6299400;22;20010;-84
2023/05/09 11:14:39;;;;;;;2.45;1.90;;;;;;;;;;6273540;22;20100;-86
2023/05/09 11:24:55;;;;;;;3.20;1.98;;;;;;;;;;6293580;22;20016;-85
2023/05/09 11:27:22;;;;;;;5.35;1.95;;;;;;;;;;6284770;22;19992;-85
2023/05/09 11:29:53;;;;;;;2.35;1.65;;;;;;;;;;6244476;22;20007;-85
2023/05/09 11:32:22;;;;;;;3.10;1.73;;;;;;;;;;6244884;22;20011;-84
2023/05/09 11:34:51;;;;;;;2.13;1.40;;;;;;;;;;6270305;22;19992;-84
2023/05/09 11:37:26;;;;;;;2.70;1.63;;;;;;;;;;6269054;22;19996;-85
2023/05/09 11:39:57;;;;;;;3.47;1.73;;;;;;;;;;6270877;22;20000;-84
2023/05/09 11:42:26;;;;;;;3.53;1.67;;;;;;;;;;6270297;22;20008;-85
2023/05/09 11:44:53;;;;;;;6.88;2.45;;;;;;;;;;6268451;22;19988;-85
2023/05/09 11:47:20;;;;;;;3.50;1.80;;;;;;;;;;6243298;22;20031;-84
2023/05/09 11:49:48;;;;;;;3.30;1.80;;;;;;;;;;6270554;22;20008;-85
2023/05/09 11:52:14;;;;;;;3.10;1.90;;;;;;;;;;6268578;22;19992;-85
2023/05/09 11:54:43;;;;;;;3.92;1.65;;;;;;;;;;6269344;22;19993;-86
2023/05/09 11:57:16;;;;;;;4.05;1.77;;;;;;;;;;6270493;22;20004;-85
2023/05/09 12:30:54;;;;;;;2.50;1.50;;;;;;;;;;6284237;22;20007;-83
2023/05/09 12:38:31;;;;;;;2.63;1.67;;;;;;;;;;6255312;22;20004;-84
2023/05/09 12:56:34;;;;;;;2.72;1.85;;;;;;;;;;6288230;22;20019;-83
2023/05/09 12:59:23;;;;;;;2.47;1.60;;;;;;;;;;6296805;22;20018;-82
2023/05/09 13:01:54;;;;;;;3.63;1.60;;;;;;;;;;6276598;22;20037;-82
2023/05/09 13:25:03;;;;;;;2.05;1.50;;;;;;;;;;6297686;22;20034;-82
2023/05/09 13:27:36;;;;;;;2.97;1.90;;;;;;;;;;6272888;22;20086;-82
2023/05/09 13:30:03;;;;;;;3.17;1.80;;;;;;;;;;6300961;22;20000;-83
2023/05/09 13:32:29;;;;;;;3.33;1.92;;;;;;;;;;6296010;22;20007;-83
2023/05/09 13:34:56;;;;;;;2.88;1.60;;;;;;;;;;6244401;23;19984;-84
2023/05/09 13:37:33;;;;;;;3.15;1.80;;;;;;;;;;6274428;22;20014;-82
2023/05/09 13:40:04;;;;;;;4.05;1.80;;;;;;;;;;6273451;23;20044;-82
2023/05/09 13:42:30;;;;;;;4.57;2.10;;;;;;;;;;6246561;22;20011;-84
2023/05/09 13:44:56;;;;;;;3.35;1.50;;;;;;;;;;6246224;23;20027;-84
2023/05/09 13:47:35;;;;;;;2.55;1.60;;;;;;;;;;6247600;22;19992;-84
2023/05/09 13:50:02;;;;;;;4.93;1.95;;;;;;;;;;6274500;22;20001;-86
2023/05/09 14:11:10;;;;;;;4.90;1.75;;;;;;;;;;6298890;22;20103;-85
2023/05/09 14:13:41;;;;;;;2.92;1.92;;;;;;;;;;6297146;22;20011;-86
2023/05/09 14:16:07;;;;;;;3.30;1.70;;;;;;;;;;6277602;22;19988;-85
2023/05/09 14:26:21;;;;;;;3.42;2.20;;;;;;;;;;6304433;22;19995;-86
2023/05/09 14:28:48;;;;;;;5.15;2.60;;;;;;;;;;6305179;22;20004;-82
2023/05/09 14:33:59;;;;;;;6.00;3.20;;;;;;;;;;6275014;22;20423;-84
2023/05/09 14:36:25;;;;;;;4.60;2.80;;;;;;;;;;6247590;22;19992;-84
2023/05/09 14:38:52;;;;;;;3.55;2.75;;;;;;;;;;6246648;22;19984;-86
2023/05/09 14:41:18;;;;;;;4.68;3.00;;;;;;;;;;6247307;22;20007;-85
2023/05/09 14:43:45;;;;;;;5.63;2.80;;;;;;;;;;6247142;22;20004;-86
2023/05/09 14:46:12;;;;;;;5.75;3.70;;;;;;;;;;6248233;22;19992;-85
2023/05/09 14:48:39;;;;;;;12.18;5.57;;;;;;;;;;6247732;22;20015;-84
2023/05/09 14:54:04;;;;;;;5.43;3.25;;;19.60;99.90;;;;;;6282612;22;20024;-83
2023/05/09 14:56:30;;;;;;;6.57;4.20;;;;;;;;;;6247811;22;20011;-86
2023/05/09 15:09:21;;;;;;;3.90;2.70;;;;;;;;;;6304234;22;20118;-84
2023/05/09 15:11:48;;;;;;;3.78;2.55;;;;;;;;;;6304146;22;20008;-84
2023/05/09 15:45:23;;;;;;;5.47;3.75;;;;;;;;;;6303191;22;20102;-82
2023/05/09 15:47:54;;;;;;;3.92;3.00;;;;;;;;;;6278221;22;19998;-85
2023/05/09 15:50:37;;;;;;;5.38;3.60;;;;;;;;;;6302502;22;19996;-83
2023/05/09 15:53:08;;;;;;;5.25;3.67;;;;;;;;;;6254869;22;19983;-84
2023/05/09 16:00:54;;;;;;;6.28;3.70;;;;;;;;;;6303109;22;20011;-87
2023/05/09 16:04:04;;;;;;;4.53;3.55;;;;;;;;;;6290892;22;19985;-85
2023/05/09 16:06:12;;;;;;;6.60;3.25;;;;;;;;;;6262394;22;20011;-85
2023/05/09 16:09:02;;;;;;;;;;;;;;;;;;;;;
2023/05/09 18:37:21;;;;;;;2.25;1.17;;;;;;;;;;6299541;22;20042;-87
2023/05/09 18:39:50;;;;;;;3.45;1.40;;;;;;;;;;6298699;22;20020;-86
2023/05/09 18:42:21;;;;;;;7.45;3.70;;;;;;;;;;6268745;22;20008;-88
2023/05/09 18:44:50;;;;;;;4.70;2.72;;;;;;;;;;6234365;23;20001;-89
2023/05/09 18:47:16;;;;;;;4.95;2.72;;;;;;;;;;6236980;23;20001;-88
2023/05/09 18:49:54;;;;;;;5.57;3.05;;;;;;;;;;6240360;23;20011;-87
2023/05/09 18:52:31;;;;;;;6.13;3.55;;;;;;;;;;6244512;22;20004;-87
2023/05/09 18:55:04;;;;;;;4.28;2.45;;;;;;;;;;6272575;23;20028;-85
2023/05/09 23:43:41;;;;;;;;;;;;;;;;;;;;;
2023/05/09 23:50:11;;;;;;;5.38;1.73;;;14.20;99.90;;;;;;6212235;23;20020;-82
